sensor_id;sensor_type;location;lat;lon;timestamp;P1;durP1;ratioP1;P2;durP2;ratioP2
20251;SDS011;10284;58.364;15.550;2023-09-30T00:02:25;13.93;;;3.00;;
20251;SDS011;10284;58.364;15.550;2023-09-30T00:04:51;10.40;;;3.70;;
20251;SDS011;10284;58.364;15.550;2023-09-30T00:07:17;14.60;;;3.55;;
20251;SDS011;10284;58.364;15.550;2023-09-30T00:09:42;10.38;;;3.33;;
20251;SDS011;10284;58.364;15.550;2023-09-30T00:12:08;18.58;;;3.63;;
20251;SDS011;10284;58.364;15.550;2023-09-30T00:14:33;14.30;;;3.78;;
20251;SDS011;10284;58.364;15.550;2023-09-30T00:16:59;12.23;;;3.70;;
20251;SDS011;10284;58.364;15.550;2023-09-30T00:19:25;13.77;;;3.13;;
20251;SDS011;10284;58.364;15.550;2023-09-30T00:21:51;11.55;;;3.70;;
20251;SDS011;10284;58.364;15.550;2023-09-30T00:24:16;13.02;;;3.40;;
20251;SDS011;10284;58.364;15.550;2023-09-30T00:26:41;14.98;;;3.70;;
20251;SDS011;10284;58.364;15.550;2023-09-30T00:29:07;13.20;;;3.65;;
20251;SDS011;10284;58.364;15.550;2023-09-30T00:31:32;10.23;;;3.30;;
20251;SDS011;10284;58.364;15.550;2023-09-30T00:33:58;12.25;;;3.67;;
20251;SDS011;10284;58.364;15.550;2023-09-30T00:36:23;13.55;;;4.30;;
20251;SDS011;10284;58.364;15.550;2023-09-30T00:38:48;12.18;;;4.22;;
20251;SDS011;10284;58.364;15.550;2023-09-30T00:41:14;18.17;;;4.38;;
20251;SDS011;10284;58.364;15.550;2023-09-30T00:43:39;10.43;;;3.53;;
20251;SDS011;10284;58.364;15.550;2023-09-30T00:49:00;12.70;;;3.80;;
20251;SDS011;10284;58.364;15.550;2023-09-30T00:51:26;16.92;;;3.90;;
20251;SDS011;10284;58.364;15.550;2023-09-30T00:53:52;16.85;;;3.78;;
20251;SDS011;10284;58.364;15.550;2023-09-30T00:56:18;15.98;;;4.32;;
20251;SDS011;10284;58.364;15.550;2023-09-30T00:58:48;18.33;;;3.97;;
20251;SDS011;10284;58.364;15.550;2023-09-30T01:01:16;18.13;;;4.10;;
20251;SDS011;10284;58.364;15.550;2023-09-30T01:03:41;18.52;;;4.47;;
20251;SDS011;10284;58.364;15.550;2023-09-30T01:06:07;17.52;;;4.45;;
20251;SDS011;10284;58.364;15.550;2023-09-30T01:08:33;20.23;;;4.80;;
20251;SDS011;10284;58.364;15.550;2023-09-30T01:10:59;17.83;;;3.72;;
20251;SDS011;10284;58.364;15.550;2023-09-30T01:13:31;20.08;;;4.13;;
20251;SDS011;10284;58.364;15.550;2023-09-30T01:15:57;13.10;;;4.50;;
20251;SDS011;10284;58.364;15.550;2023-09-30T01:18:23;12.85;;;4.25;;
20251;SDS011;10284;58.364;15.550;2023-09-30T01:20:48;25.45;;;4.85;;
20251;SDS011;10284;58.364;15.550;2023-09-30T01:23:13;22.23;;;4.78;;
20251;SDS011;10284;58.364;15.550;2023-09-30T01:25:39;20.10;;;4.53;;
20251;SDS011;10284;58.364;15.550;2023-09-30T01:28:07;17.00;;;3.88;;
20251;SDS011;10284;58.364;15.550;2023-09-30T01:30:34;14.80;;;4.43;;
20251;SDS011;10284;58.364;15.550;2023-09-30T01:32:59;14.48;;;3.80;;
20251;SDS011;10284;58.364;15.550;2023-09-30T01:35:25;20.98;;;4.60;;
20251;SDS011;10284;58.364;15.550;2023-09-30T01:37:50;18.48;;;3.78;;
20251;SDS011;10284;58.364;15.550;2023-09-30T01:40:16;20.98;;;4.10;;
20251;SDS011;10284;58.364;15.550;2023-09-30T01:42:43;17.92;;;4.32;;
20251;SDS011;10284;58.364;15.550;2023-09-30T01:45:08;22.83;;;4.63;;
20251;SDS011;10284;58.364;15.550;2023-09-30T01:47:35;19.17;;;4.47;;
20251;SDS011;10284;58.364;15.550;2023-09-30T01:50:00;21.95;;;4.43;;
20251;SDS011;10284;58.364;15.550;2023-09-30T01:52:26;22.55;;;4.82;;
20251;SDS011;10284;58.364;15.550;2023-09-30T01:54:52;18.45;;;4.20;;
20251;SDS011;10284;58.364;15.550;2023-09-30T01:57:19;16.75;;;3.63;;
20251;SDS011;10284;58.364;15.550;2023-09-30T01:59:44;24.15;;;4.60;;
20251;SDS011;10284;58.364;15.550;2023-09-30T02:02:09;19.17;;;4.40;;
20251;SDS011;10284;58.364;15.550;2023-09-30T02:04:35;17.00;;;4.53;;
20251;SDS011;10284;58.364;15.550;2023-09-30T02:07:00;18.90;;;4.47;;
20251;SDS011;10284;58.364;15.550;2023-09-30T02:09:26;19.50;;;4.15;;
20251;SDS011;10284;58.364;15.550;2023-09-30T02:11:51;16.65;;;4.13;;
20251;SDS011;10284;58.364;15.550;2023-09-30T02:14:16;21.88;;;4.40;;
20251;SDS011;10284;58.364;15.550;2023-09-30T02:16:42;25.55;;;4.13;;
20251;SDS011;10284;58.364;15.550;2023-09-30T02:19:07;21.33;;;4.78;;
20251;SDS011;10284;58.364;15.550;2023-09-30T02:21:35;17.60;;;3.65;;
20251;SDS011;10284;58.364;15.550;2023-09-30T02:24:01;18.25;;;4.10;;
20251;SDS011;10284;58.364;15.550;2023-09-30T02:26:27;18.20;;;3.78;;
20251;SDS011;10284;58.364;15.550;2023-09-30T02:28:54;20.30;;;3.78;;
20251;SDS011;10284;58.364;15.550;2023-09-30T02:31:19;19.70;;;3.88;;
20251;SDS011;10284;58.364;15.550;2023-09-30T02:33:44;16.88;;;4.50;;
20251;SDS011;10284;58.364;15.550;2023-09-30T02:36:10;14.73;;;2.97;;
20251;SDS011;10284;58.364;15.550;2023-09-30T02:38:37;17.83;;;3.50;;
20251;SDS011;10284;58.364;15.550;2023-09-30T02:41:03;28.85;;;3.72;;
20251;SDS011;10284;58.364;15.550;2023-09-30T02:43:28;20.00;;;3.60;;
20251;SDS011;10284;58.364;15.550;2023-09-30T02:45:54;18.95;;;3.15;;
20251;SDS011;10284;58.364;15.550;2023-09-30T02:48:19;20.65;;;3.78;;
20251;SDS011;10284;58.364;15.550;2023-09-30T02:50:45;18.63;;;3.78;;
20251;SDS011;10284;58.364;15.550;2023-09-30T02:53:10;21.02;;;3.50;;
20251;SDS011;10284;58.364;15.550;2023-09-30T02:55:37;22.15;;;4.50;;
20251;SDS011;10284;58.364;15.550;2023-09-30T02:58:03;20.10;;;3.90;;
20251;SDS011;10284;58.364;15.550;2023-09-30T03:00:28;17.25;;;4.10;;
20251;SDS011;10284;58.364;15.550;2023-09-30T03:02:59;18.80;;;3.88;;
20251;SDS011;10284;58.364;15.550;2023-09-30T03:05:25;13.57;;;3.20;;
20251;SDS011;10284;58.364;15.550;2023-09-30T03:07:52;18.75;;;3.33;;
20251;SDS011;10284;58.364;15.550;2023-09-30T03:10:19;16.98;;;3.67;;
20251;SDS011;10284;58.364;15.550;2023-09-30T03:12:48;18.13;;;3.42;;
20251;SDS011;10284;58.364;15.550;2023-09-30T03:15:17;17.67;;;3.40;;
20251;SDS011;10284;58.364;15.550;2023-09-30T03:17:42;16.65;;;3.20;;
20251;SDS011;10284;58.364;15.550;2023-09-30T03:20:08;16.33;;;3.55;;
20251;SDS011;10284;58.364;15.550;2023-09-30T03:22:39;19.27;;;4.10;;
20251;SDS011;10284;58.364;15.550;2023-09-30T03:25:06;21.38;;;3.83;;
20251;SDS011;10284;58.364;15.550;2023-09-30T03:27:35;18.05;;;3.70;;
20251;SDS011;10284;58.364;15.550;2023-09-30T03:30:02;21.83;;;3.90;;
20251;SDS011;10284;58.364;15.550;2023-09-30T03:32:28;17.40;;;3.63;;
20251;SDS011;10284;58.364;15.550;2023-09-30T03:34:54;22.17;;;3.83;;
20251;SDS011;10284;58.364;15.550;2023-09-30T03:37:24;24.35;;;3.78;;
20251;SDS011;10284;58.364;15.550;2023-09-30T03:39:51;19.52;;;3.60;;
20251;SDS011;10284;58.364;15.550;2023-09-30T03:42:18;17.25;;;3.15;;
20251;SDS011;10284;58.364;15.550;2023-09-30T03:44:43;21.02;;;3.30;;
20251;SDS011;10284;58.364;15.550;2023-09-30T03:47:09;21.73;;;3.42;;
20251;SDS011;10284;58.364;15.550;2023-09-30T03:49:35;18.17;;;3.47;;
20251;SDS011;10284;58.364;15.550;2023-09-30T03:52:03;28.90;;;4.93;;
20251;SDS011;10284;58.364;15.550;2023-09-30T03:54:29;15.35;;;3.03;;
20251;SDS011;10284;58.364;15.550;2023-09-30T03:56:55;19.63;;;3.33;;
20251;SDS011;10284;58.364;15.550;2023-09-30T03:59:20;19.17;;;4.03;;
20251;SDS011;10284;58.364;15.550;2023-09-30T04:01:45;18.80;;;3.50;;
20251;SDS011;10284;58.364;15.550;2023-09-30T04:04:12;19.52;;;3.28;;
20251;SDS011;10284;58.364;15.550;2023-09-30T04:06:37;19.85;;;3.50;;
20251;SDS011;10284;58.364;15.550;2023-09-30T04:09:04;22.90;;;4.15;;
20251;SDS011;10284;58.364;15.550;2023-09-30T04:11:35;18.38;;;3.40;;
20251;SDS011;10284;58.364;15.550;2023-09-30T04:14:03;19.75;;;3.35;;
20251;SDS011;10284;58.364;15.550;2023-09-30T04:16:30;20.98;;;3.50;;
20251;SDS011;10284;58.364;15.550;2023-09-30T04:18:56;23.27;;;3.65;;
20251;SDS011;10284;58.364;15.550;2023-09-30T04:21:22;20.27;;;3.80;;
20251;SDS011;10284;58.364;15.550;2023-09-30T04:23:47;21.70;;;3.60;;
20251;SDS011;10284;58.364;15.550;2023-09-30T04:26:14;23.85;;;3.45;;
20251;SDS011;10284;58.364;15.550;2023-09-30T04:28:40;20.40;;;3.25;;
20251;SDS011;10284;58.364;15.550;2023-09-30T04:31:05;20.05;;;3.15;;
20251;SDS011;10284;58.364;15.550;2023-09-30T04:33:32;17.95;;;3.15;;
20251;SDS011;10284;58.364;15.550;2023-09-30T04:36:00;21.02;;;3.58;;
20251;SDS011;10284;58.364;15.550;2023-09-30T04:38:26;21.23;;;3.83;;
20251;SDS011;10284;58.364;15.550;2023-09-30T04:40:52;19.00;;;4.03;;
20251;SDS011;10284;58.364;15.550;2023-09-30T04:43:19;18.58;;;2.92;;
20251;SDS011;10284;58.364;15.550;2023-09-30T04:45:44;21.75;;;3.47;;
20251;SDS011;10284;58.364;15.550;2023-09-30T04:48:11;18.77;;;3.15;;
20251;SDS011;10284;58.364;15.550;2023-09-30T04:50:38;21.08;;;3.33;;
20251;SDS011;10284;58.364;15.550;2023-09-30T04:53:04;26.38;;;3.83;;
20251;SDS011;10284;58.364;15.550;2023-09-30T04:55:29;17.27;;;3.30;;
20251;SDS011;10284;58.364;15.550;2023-09-30T04:57:55;20.77;;;3.65;;
20251;SDS011;10284;58.364;15.550;2023-09-30T05:00:20;15.82;;;2.55;;
20251;SDS011;10284;58.364;15.550;2023-09-30T05:02:54;23.73;;;3.95;;
20251;SDS011;10284;58.364;15.550;2023-09-30T05:05:20;14.65;;;3.13;;
20251;SDS011;10284;58.364;15.550;2023-09-30T05:07:46;19.60;;;3.63;;
20251;SDS011;10284;58.364;15.550;2023-09-30T05:10:12;18.35;;;3.05;;
20251;SDS011;10284;58.364;15.550;2023-09-30T05:12:41;19.27;;;3.35;;
20251;SDS011;10284;58.364;15.550;2023-09-30T05:15:10;21.30;;;3.10;;
20251;SDS011;10284;58.364;15.550;2023-09-30T05:17:41;18.88;;;3.05;;
20251;SDS011;10284;58.364;15.550;2023-09-30T05:20:08;24.50;;;3.15;;
20251;SDS011;10284;58.364;15.550;2023-09-30T05:22:35;16.27;;;3.03;;
20251;SDS011;10284;58.364;15.550;2023-09-30T05:25:01;18.25;;;3.42;;
20251;SDS011;10284;58.364;15.550;2023-09-30T05:27:26;22.00;;;3.72;;
20251;SDS011;10284;58.364;15.550;2023-09-30T05:29:52;17.48;;;2.92;;
20251;SDS011;10284;58.364;15.550;2023-09-30T05:32:18;16.10;;;3.33;;
20251;SDS011;10284;58.364;15.550;2023-09-30T05:34:43;19.50;;;2.78;;
20251;SDS011;10284;58.364;15.550;2023-09-30T05:37:09;14.73;;;3.05;;
20251;SDS011;10284;58.364;15.550;2023-09-30T05:39:34;21.92;;;3.22;;
20251;SDS011;10284;58.364;15.550;2023-09-30T05:42:00;18.67;;;2.92;;
20251;SDS011;10284;58.364;15.550;2023-09-30T05:44:25;13.60;;;2.85;;
20251;SDS011;10284;58.364;15.550;2023-09-30T05:46:52;18.45;;;3.50;;
20251;SDS011;10284;58.364;15.550;2023-09-30T05:49:18;19.10;;;3.13;;
20251;SDS011;10284;58.364;15.550;2023-09-30T05:51:44;17.98;;;3.35;;
20251;SDS011;10284;58.364;15.550;2023-09-30T05:54:09;19.42;;;3.28;;
20251;SDS011;10284;58.364;15.550;2023-09-30T05:56:38;18.35;;;3.50;;
20251;SDS011;10284;58.364;15.550;2023-09-30T05:59:04;19.55;;;3.40;;
20251;SDS011;10284;58.364;15.550;2023-09-30T06:01:30;14.48;;;3.00;;
20251;SDS011;10284;58.364;15.550;2023-09-30T06:03:57;18.65;;;3.40;;
20251;SDS011;10284;58.364;15.550;2023-09-30T06:06:23;27.90;;;3.75;;
20251;SDS011;10284;58.364;15.550;2023-09-30T06:08:49;20.75;;;3.92;;
20251;SDS011;10284;58.364;15.550;2023-09-30T06:11:21;24.90;;;4.35;;
20251;SDS011;10284;58.364;15.550;2023-09-30T06:13:56;13.88;;;3.17;;
20251;SDS011;10284;58.364;15.550;2023-09-30T06:16:26;21.15;;;3.30;;
20251;SDS011;10284;58.364;15.550;2023-09-30T06:18:55;20.88;;;3.55;;
20251;SDS011;10284;58.364;15.550;2023-09-30T06:21:21;19.40;;;3.30;;
20251;SDS011;10284;58.364;15.550;2023-09-30T06:23:49;17.05;;;3.97;;
20251;SDS011;10284;58.364;15.550;2023-09-30T06:26:18;18.42;;;3.33;;
20251;SDS011;10284;58.364;15.550;2023-09-30T06:28:43;21.52;;;3.60;;
20251;SDS011;10284;58.364;15.550;2023-09-30T06:31:10;23.35;;;3.03;;
20251;SDS011;10284;58.364;15.550;2023-09-30T06:33:36;19.70;;;3.38;;
20251;SDS011;10284;58.364;15.550;2023-09-30T06:36:11;20.63;;;3.60;;
20251;SDS011;10284;58.364;15.550;2023-09-30T06:38:41;15.15;;;3.38;;
20251;SDS011;10284;58.364;15.550;2023-09-30T06:41:08;16.13;;;3.13;;
20251;SDS011;10284;58.364;15.550;2023-09-30T06:43:34;13.43;;;2.42;;
20251;SDS011;10284;58.364;15.550;2023-09-30T06:46:07;17.85;;;3.10;;
20251;SDS011;10284;58.364;15.550;2023-09-30T06:48:36;21.00;;;3.40;;
20251;SDS011;10284;58.364;15.550;2023-09-30T06:51:02;17.80;;;3.50;;
20251;SDS011;10284;58.364;15.550;2023-09-30T06:53:28;19.95;;;3.20;;
20251;SDS011;10284;58.364;15.550;2023-09-30T06:55:53;17.65;;;3.55;;
20251;SDS011;10284;58.364;15.550;2023-09-30T06:58:19;16.63;;;2.88;;
20251;SDS011;10284;58.364;15.550;2023-09-30T07:00:50;18.08;;;2.83;;
20251;SDS011;10284;58.364;15.550;2023-09-30T07:03:16;18.75;;;4.18;;
20251;SDS011;10284;58.364;15.550;2023-09-30T07:05:42;14.75;;;2.90;;
20251;SDS011;10284;58.364;15.550;2023-09-30T07:08:09;17.52;;;3.25;;
20251;SDS011;10284;58.364;15.550;2023-09-30T07:10:34;21.40;;;3.40;;
20251;SDS011;10284;58.364;15.550;2023-09-30T07:13:01;14.07;;;3.25;;
20251;SDS011;10284;58.364;15.550;2023-09-30T07:15:28;14.90;;;2.72;;
20251;SDS011;10284;58.364;15.550;2023-09-30T07:17:53;14.68;;;3.17;;
20251;SDS011;10284;58.364;15.550;2023-09-30T07:20:18;14.30;;;2.90;;
20251;SDS011;10284;58.364;15.550;2023-09-30T07:22:45;15.23;;;3.05;;
20251;SDS011;10284;58.364;15.550;2023-09-30T07:25:11;13.18;;;2.80;;
20251;SDS011;10284;58.364;15.550;2023-09-30T07:27:45;14.68;;;3.00;;
20251;SDS011;10284;58.364;15.550;2023-09-30T07:30:11;15.60;;;3.10;;
20251;SDS011;10284;58.364;15.550;2023-09-30T07:32:41;16.98;;;3.03;;
20251;SDS011;10284;58.364;15.550;2023-09-30T07:35:07;20.42;;;3.20;;
20251;SDS011;10284;58.364;15.550;2023-09-30T07:37:33;17.45;;;3.50;;
20251;SDS011;10284;58.364;15.550;2023-09-30T07:39:58;15.10;;;3.78;;
20251;SDS011;10284;58.364;15.550;2023-09-30T07:42:24;12.50;;;2.50;;
20251;SDS011;10284;58.364;15.550;2023-09-30T07:44:50;21.00;;;2.97;;
20251;SDS011;10284;58.364;15.550;2023-09-30T07:47:15;17.17;;;4.03;;
20251;SDS011;10284;58.364;15.550;2023-09-30T07:49:40;14.55;;;2.83;;
20251;SDS011;10284;58.364;15.550;2023-09-30T07:52:06;14.55;;;2.58;;
20251;SDS011;10284;58.364;15.550;2023-09-30T07:54:31;11.50;;;2.45;;
20251;SDS011;10284;58.364;15.550;2023-09-30T07:56:57;15.05;;;2.83;;
20251;SDS011;10284;58.364;15.550;2023-09-30T07:59:24;15.57;;;2.55;;
20251;SDS011;10284;58.364;15.550;2023-09-30T08:01:49;14.80;;;2.60;;
20251;SDS011;10284;58.364;15.550;2023-09-30T08:04:14;15.35;;;2.63;;
20251;SDS011;10284;58.364;15.550;2023-09-30T08:06:40;11.07;;;2.35;;
20251;SDS011;10284;58.364;15.550;2023-09-30T08:09:05;19.90;;;3.30;;
20251;SDS011;10284;58.364;15.550;2023-09-30T08:11:36;9.27;;;1.92;;
20251;SDS011;10284;58.364;15.550;2023-09-30T08:14:03;13.65;;;2.15;;
20251;SDS011;10284;58.364;15.550;2023-09-30T08:16:32;17.33;;;2.40;;
20251;SDS011;10284;58.364;15.550;2023-09-30T08:18:58;10.70;;;2.40;;
20251;SDS011;10284;58.364;15.550;2023-09-30T08:21:23;10.00;;;2.03;;
20251;SDS011;10284;58.364;15.550;2023-09-30T08:23:49;7.75;;;1.80;;
20251;SDS011;10284;58.364;15.550;2023-09-30T08:26:14;7.85;;;1.77;;
20251;SDS011;10284;58.364;15.550;2023-09-30T08:28:39;10.77;;;2.03;;
20251;SDS011;10284;58.364;15.550;2023-09-30T08:31:05;7.75;;;1.80;;
20251;SDS011;10284;58.364;15.550;2023-09-30T08:33:34;12.40;;;2.35;;
20251;SDS011;10284;58.364;15.550;2023-09-30T08:36:04;10.98;;;1.60;;
20251;SDS011;10284;58.364;15.550;2023-09-30T08:38:33;9.73;;;1.42;;
20251;SDS011;10284;58.364;15.550;2023-09-30T08:41:01;7.15;;;1.48;;
20251;SDS011;10284;58.364;15.550;2023-09-30T08:43:27;8.88;;;1.63;;
20251;SDS011;10284;58.364;15.550;2023-09-30T08:45:55;6.85;;;1.75;;
20251;SDS011;10284;58.364;15.550;2023-09-30T08:48:21;8.88;;;1.80;;
20251;SDS011;10284;58.364;15.550;2023-09-30T08:50:48;10.00;;;1.70;;
20251;SDS011;10284;58.364;15.550;2023-09-30T08:53:14;8.40;;;1.60;;
20251;SDS011;10284;58.364;15.550;2023-09-30T08:55:41;10.70;;;1.80;;
20251;SDS011;10284;58.364;15.550;2023-09-30T08:58:09;12.57;;;1.90;;
20251;SDS011;10284;58.364;15.550;2023-09-30T09:00:35;9.57;;;1.42;;
20251;SDS011;10284;58.364;15.550;2023-09-30T09:03:01;8.05;;;1.40;;
20251;SDS011;10284;58.364;15.550;2023-09-30T09:05:27;5.65;;;1.33;;
20251;SDS011;10284;58.364;15.550;2023-09-30T09:07:52;7.35;;;1.25;;
20251;SDS011;10284;58.364;15.550;2023-09-30T09:10:18;8.75;;;1.55;;
20251;SDS011;10284;58.364;15.550;2023-09-30T09:12:43;8.45;;;1.90;;
20251;SDS011;10284;58.364;15.550;2023-09-30T09:15:20;9.85;;;1.73;;
20251;SDS011;10284;58.364;15.550;2023-09-30T09:17:48;8.32;;;1.58;;
20251;SDS011;10284;58.364;15.550;2023-09-30T09:20:19;6.47;;;1.10;;
20251;SDS011;10284;58.364;15.550;2023-09-30T09:22:46;10.57;;;1.98;;
20251;SDS011;10284;58.364;15.550;2023-09-30T09:25:12;7.53;;;1.23;;
20251;SDS011;10284;58.364;15.550;2023-09-30T09:27:38;4.88;;;1.30;;
20251;SDS011;10284;58.364;15.550;2023-09-30T09:30:16;9.80;;;1.42;;
20251;SDS011;10284;58.364;15.550;2023-09-30T09:35:28;9.32;;;1.40;;
20251;SDS011;10284;58.364;15.550;2023-09-30T09:37:56;6.32;;;1.20;;
20251;SDS011;10284;58.364;15.550;2023-09-30T09:40:22;4.97;;;1.48;;
20251;SDS011;10284;58.364;15.550;2023-09-30T09:42:49;7.60;;;1.38;;
20251;SDS011;10284;58.364;15.550;2023-09-30T09:45:18;8.38;;;1.40;;
20251;SDS011;10284;58.364;15.550;2023-09-30T09:47:48;7.60;;;1.50;;
20251;SDS011;10284;58.364;15.550;2023-09-30T09:50:14;9.98;;;1.23;;
20251;SDS011;10284;58.364;15.550;2023-09-30T09:52:40;12.88;;;1.90;;
20251;SDS011;10284;58.364;15.550;2023-09-30T09:55:08;10.13;;;1.70;;
20251;SDS011;10284;58.364;15.550;2023-09-30T09:57:35;8.68;;;1.60;;
20251;SDS011;10284;58.364;15.550;2023-09-30T10:00:01;8.75;;;2.15;;
20251;SDS011;10284;58.364;15.550;2023-09-30T10:02:30;7.25;;;1.20;;
20251;SDS011;10284;58.364;15.550;2023-09-30T10:04:55;8.75;;;1.90;;
20251;SDS011;10284;58.364;15.550;2023-09-30T10:07:22;10.18;;;1.25;;
20251;SDS011;10284;58.364;15.550;2023-09-30T10:09:51;12.77;;;2.00;;
20251;SDS011;10284;58.364;15.550;2023-09-30T10:12:18;7.38;;;1.60;;
20251;SDS011;10284;58.364;15.550;2023-09-30T10:14:44;7.53;;;1.20;;
20251;SDS011;10284;58.364;15.550;2023-09-30T10:17:10;11.50;;;1.73;;
20251;SDS011;10284;58.364;15.550;2023-09-30T10:19:36;7.63;;;1.52;;
20251;SDS011;10284;58.364;15.550;2023-09-30T10:24:42;6.28;;;1.60;;
20251;SDS011;10284;58.364;15.550;2023-09-30T10:30:18;9.55;;;1.30;;
20251;SDS011;10284;58.364;15.550;2023-09-30T10:37:44;10.88;;;1.80;;
20251;SDS011;10284;58.364;15.550;2023-09-30T10:40:10;8.30;;;1.40;;
20251;SDS011;10284;58.364;15.550;2023-09-30T10:42:51;10.57;;;1.75;;
20251;SDS011;10284;58.364;15.550;2023-09-30T10:50:51;7.40;;;1.42;;
20251;SDS011;10284;58.364;15.550;2023-09-30T10:53:21;8.07;;;1.25;;
20251;SDS011;10284;58.364;15.550;2023-09-30T10:55:47;6.85;;;1.23;;
20251;SDS011;10284;58.364;15.550;2023-09-30T10:58:19;8.55;;;1.38;;
20251;SDS011;10284;58.364;15.550;2023-09-30T11:00:54;5.57;;;1.38;;
20251;SDS011;10284;58.364;15.550;2023-09-30T11:03:20;7.75;;;1.40;;
20251;SDS011;10284;58.364;15.550;2023-09-30T11:05:47;9.32;;;1.20;;
20251;SDS011;10284;58.364;15.550;2023-09-30T11:08:13;6.55;;;1.30;;
20251;SDS011;10284;58.364;15.550;2023-09-30T11:10:46;7.63;;;1.10;;
20251;SDS011;10284;58.364;15.550;2023-09-30T11:13:16;11.05;;;1.88;;
20251;SDS011;10284;58.364;15.550;2023-09-30T11:15:45;10.20;;;1.70;;
20251;SDS011;10284;58.364;15.550;2023-09-30T11:18:17;6.43;;;1.38;;
20251;SDS011;10284;58.364;15.550;2023-09-30T11:20:43;9.60;;;1.50;;
20251;SDS011;10284;58.364;15.550;2023-09-30T11:23:10;7.30;;;1.40;;
20251;SDS011;10284;58.364;15.550;2023-09-30T11:25:36;9.07;;;1.75;;
20251;SDS011;10284;58.364;15.550;2023-09-30T11:28:40;6.35;;;0.93;;
20251;SDS011;10284;58.364;15.550;2023-09-30T11:31:01;7.45;;;1.30;;
20251;SDS011;10284;58.364;15.550;2023-09-30T11:33:27;7.43;;;1.48;;
20251;SDS011;10284;58.364;15.550;2023-09-30T11:36:04;5.88;;;1.42;;
20251;SDS011;10284;58.364;15.550;2023-09-30T11:38:31;6.95;;;1.60;;
20251;SDS011;10284;58.364;15.550;2023-09-30T11:41:00;7.93;;;1.58;;
20251;SDS011;10284;58.364;15.550;2023-09-30T11:43:33;5.05;;;1.45;;
20251;SDS011;10284;58.364;15.550;2023-09-30T11:46:06;6.18;;;1.23;;
20251;SDS011;10284;58.364;15.550;2023-09-30T11:48:36;9.20;;;1.42;;
20251;SDS011;10284;58.364;15.550;2023-09-30T11:51:02;5.82;;;1.80;;
20251;SDS011;10284;58.364;15.550;2023-09-30T11:53:31;6.32;;;1.50;;
20251;SDS011;10284;58.364;15.550;2023-09-30T11:55:57;7.82;;;1.60;;
20251;SDS011;10284;58.364;15.550;2023-09-30T11:58:27;10.85;;;1.60;;
20251;SDS011;10284;58.364;15.550;2023-09-30T12:00:57;9.63;;;1.73;;
20251;SDS011;10284;58.364;15.550;2023-09-30T12:03:24;6.07;;;1.15;;
20251;SDS011;10284;58.364;15.550;2023-09-30T12:05:52;8.13;;;1.77;;
20251;SDS011;10284;58.364;15.550;2023-09-30T12:08:20;11.18;;;1.70;;
20251;SDS011;10284;58.364;15.550;2023-09-30T12:10:47;8.25;;;1.50;;
20251;SDS011;10284;58.364;15.550;2023-09-30T12:13:12;8.90;;;1.70;;
20251;SDS011;10284;58.364;15.550;2023-09-30T12:15:40;7.45;;;1.58;;
20251;SDS011;10284;58.364;15.550;2023-09-30T12:18:06;6.35;;;1.60;;
20251;SDS011;10284;58.364;15.550;2023-09-30T12:20:32;7.45;;;1.52;;
20251;SDS011;10284;58.364;15.550;2023-09-30T12:22:58;6.85;;;1.95;;
20251;SDS011;10284;58.364;15.550;2023-09-30T12:25:24;6.72;;;1.60;;
20251;SDS011;10284;58.364;15.550;2023-09-30T12:27:50;8.93;;;1.67;;
20251;SDS011;10284;58.364;15.550;2023-09-30T12:30:16;11.05;;;2.47;;
20251;SDS011;10284;58.364;15.550;2023-09-30T12:32:42;8.45;;;1.20;;
20251;SDS011;10284;58.364;15.550;2023-09-30T12:35:07;8.55;;;1.75;;
20251;SDS011;10284;58.364;15.550;2023-09-30T12:37:33;9.32;;;1.73;;
20251;SDS011;10284;58.364;15.550;2023-09-30T12:39:58;10.23;;;2.42;;
20251;SDS011;10284;58.364;15.550;2023-09-30T12:42:23;10.02;;;2.83;;
20251;SDS011;10284;58.364;15.550;2023-09-30T12:44:49;7.18;;;1.50;;
20251;SDS011;10284;58.364;15.550;2023-09-30T12:47:15;8.75;;;1.55;;
20251;SDS011;10284;58.364;15.550;2023-09-30T12:49:40;10.13;;;2.13;;
20251;SDS011;10284;58.364;15.550;2023-09-30T12:52:06;11.90;;;1.90;;
20251;SDS011;10284;58.364;15.550;2023-09-30T12:54:32;10.77;;;2.00;;
20251;SDS011;10284;58.364;15.550;2023-09-30T12:56:57;10.73;;;3.67;;
20251;SDS011;10284;58.364;15.550;2023-09-30T12:59:23;8.23;;;2.10;;
20251;SDS011;10284;58.364;15.550;2023-09-30T13:01:50;8.60;;;1.90;;
20251;SDS011;10284;58.364;15.550;2023-09-30T13:04:16;8.80;;;1.70;;
20251;SDS011;10284;58.364;15.550;2023-09-30T13:06:42;7.07;;;1.55;;
20251;SDS011;10284;58.364;15.550;2023-09-30T13:09:08;9.57;;;1.58;;
20251;SDS011;10284;58.364;15.550;2023-09-30T13:11:34;8.50;;;1.95;;
20251;SDS011;10284;58.364;15.550;2023-09-30T13:13:59;6.65;;;1.40;;
20251;SDS011;10284;58.364;15.550;2023-09-30T13:16:25;6.47;;;1.42;;
20251;SDS011;10284;58.364;15.550;2023-09-30T13:18:50;13.13;;;1.77;;
20251;SDS011;10284;58.364;15.550;2023-09-30T13:21:18;6.60;;;1.35;;
20251;SDS011;10284;58.364;15.550;2023-09-30T13:23:43;8.23;;;1.48;;
20251;SDS011;10284;58.364;15.550;2023-09-30T13:26:10;7.43;;;1.88;;
20251;SDS011;10284;58.364;15.550;2023-09-30T13:28:35;8.68;;;1.70;;
20251;SDS011;10284;58.364;15.550;2023-09-30T13:31:01;9.60;;;1.70;;
20251;SDS011;10284;58.364;15.550;2023-09-30T13:33:26;6.40;;;1.50;;
20251;SDS011;10284;58.364;15.550;2023-09-30T13:35:52;10.57;;;1.60;;
20251;SDS011;10284;58.364;15.550;2023-09-30T13:38:18;6.35;;;1.23;;
20251;SDS011;10284;58.364;15.550;2023-09-30T13:40:44;10.15;;;1.90;;
20251;SDS011;10284;58.364;15.550;2023-09-30T13:43:11;10.48;;;1.77;;
20251;SDS011;10284;58.364;15.550;2023-09-30T13:45:36;6.57;;;1.30;;
20251;SDS011;10284;58.364;15.550;2023-09-30T13:48:02;6.78;;;1.30;;
20251;SDS011;10284;58.364;15.550;2023-09-30T13:50:28;9.30;;;1.52;;
20251;SDS011;10284;58.364;15.550;2023-09-30T13:52:53;8.80;;;1.60;;
20251;SDS011;10284;58.364;15.550;2023-09-30T13:55:18;12.70;;;2.17;;
20251;SDS011;10284;58.364;15.550;2023-09-30T13:57:47;8.85;;;1.52;;
20251;SDS011;10284;58.364;15.550;2023-09-30T14:00:13;11.60;;;1.80;;
20251;SDS011;10284;58.364;15.550;2023-09-30T14:02:40;8.13;;;1.60;;
20251;SDS011;10284;58.364;15.550;2023-09-30T14:05:05;10.77;;;2.08;;
20251;SDS011;10284;58.364;15.550;2023-09-30T14:07:33;5.57;;;1.67;;
20251;SDS011;10284;58.364;15.550;2023-09-30T14:09:59;10.73;;;1.80;;
20251;SDS011;10284;58.364;15.550;2023-09-30T14:12:24;8.30;;;1.90;;
20251;SDS011;10284;58.364;15.550;2023-09-30T14:14:49;7.55;;;1.90;;
20251;SDS011;10284;58.364;15.550;2023-09-30T14:17:16;7.20;;;1.67;;
20251;SDS011;10284;58.364;15.550;2023-09-30T14:19:42;9.30;;;1.60;;
20251;SDS011;10284;58.364;15.550;2023-09-30T14:22:08;10.30;;;1.92;;
20251;SDS011;10284;58.364;15.550;2023-09-30T14:24:34;7.25;;;1.70;;
20251;SDS011;10284;58.364;15.550;2023-09-30T14:27:01;13.10;;;2.15;;
20251;SDS011;10284;58.364;15.550;2023-09-30T14:29:28;5.68;;;1.48;;
20251;SDS011;10284;58.364;15.550;2023-09-30T14:31:53;5.95;;;1.50;;
20251;SDS011;10284;58.364;15.550;2023-09-30T14:34:19;9.70;;;2.00;;
20251;SDS011;10284;58.364;15.550;2023-09-30T14:36:44;8.45;;;2.03;;
20251;SDS011;10284;58.364;15.550;2023-09-30T14:39:10;9.75;;;2.40;;
20251;SDS011;10284;58.364;15.550;2023-09-30T14:41:36;9.73;;;2.13;;
20251;SDS011;10284;58.364;15.550;2023-09-30T14:44:01;8.43;;;1.67;;
20251;SDS011;10284;58.364;15.550;2023-09-30T14:46:32;9.90;;;1.83;;